Time;durP1;ratioP1;P1;durP2;ratioP2;P2;SDS_P1;SDS_P2;PMS_P1;PMS_P2;Temp;Humidity;BMP_temperature;BMP_pressure;BME280_temperature;BME280_humidity;BME280_pressure;Samples;Min_cycle;Max_cycle;Signal;HPM_P1;HPM_P2
2022/10/30 00:00:52;;;;;;;135.63;52.00;;;13.90;99.90;;;;;;5136580;27;20549;-72
2022/10/30 00:03:18;;;;;;;113.93;48.37;;;13.90;99.90;;;;;;5136548;27;20567;-71
2022/10/30 00:05:46;;;;;;;127.27;46.90;;;13.90;99.90;;;;;;5136826;27;20197;-72
2022/10/30 00:08:15;;;;;;;114.37;49.70;;;13.90;99.90;;;;;;5117972;27;20466;-75
2022/10/30 00:10:41;;;;;;;109.17;48.83;;;13.90;99.90;;;;;;5136614;27;20427;-75
2022/10/30 00:13:07;;;;;;;117.93;47.60;;;13.90;99.90;;;;;;5117992;27;20470;-74
2022/10/30 00:15:33;;;;;;;129.03;51.83;;;13.90;99.90;;;;;;5136478;27;20531;-72
2022/10/30 00:17:59;;;;;;;101.67;45.90;;;13.80;99.90;;;;;;5136333;27;20435;-74
2022/10/30 00:20:25;;;;;;;115.00;48.00;;;13.80;99.90;;;;;;5117782;27;20962;-72
2022/10/30 00:22:50;;;;;;;105.87;45.50;;;13.80;99.90;;;;;;5117686;27;20186;-71
2022/10/30 00:25:16;;;;;;;110.43;41.63;;;13.80;99.90;;;;;;5117434;27;20275;-75
2022/10/30 00:27:42;;;;;;;113.83;42.00;;;13.80;99.90;;;;;;5136180;27;20207;-75
2022/10/30 00:30:09;;;;;;;102.07;42.50;;;13.70;99.90;;;;;;5117761;27;20239;-72
2022/10/30 00:32:35;;;;;;;104.73;40.80;;;13.70;99.90;;;;;;5136012;27;20414;-75
2022/10/30 00:35:00;;;;;;;102.47;41.90;;;13.70;99.90;;;;;;5117534;27;20457;-75
2022/10/30 00:37:26;;;;;;;98.97;41.33;;;13.70;99.90;;;;;;5136567;27;20228;-71
2022/10/30 00:39:52;;;;;;;102.53;39.13;;;13.70;99.90;;;;;;5117046;27;20237;-76
2022/10/30 00:42:17;;;;;;;98.60;40.90;;;13.70;99.90;;;;;;5136455;27;20179;-75
2022/10/30 00:44:43;;;;;;;110.47;40.90;;;13.70;99.90;;;;;;5135710;27;20237;-75
2022/10/30 00:47:25;;;;;;;101.43;40.90;;;13.70;99.90;;;;;;5136031;27;20588;-72
2022/10/30 00:50:17;;;;;;;101.90;41.13;;;13.70;99.90;;;;;;5135775;27;20191;-75
2022/10/30 00:52:50;;;;;;;89.70;39.87;;;13.70;99.90;;;;;;5135856;27;20392;-72
2022/10/30 00:55:25;;;;;;;89.20;38.97;;;13.70;99.90;;;;;;5117136;27;20465;-72
2022/10/30 00:57:52;;;;;;;100.53;41.57;;;13.70;99.90;;;;;;5117185;27;20423;-75
2022/10/30 01:00:21;;;;;;;99.17;39.13;;;13.80;99.90;;;;;;5117079;27;20463;-73
2022/10/30 01:02:48;;;;;;;90.63;35.17;;;13.70;99.90;;;;;;5116999;27;20419;-72
2022/10/30 01:05:17;;;;;;;83.63;37.50;;;13.70;99.90;;;;;;5135304;27;20426;-75
2022/10/30 01:07:42;;;;;;;85.33;37.40;;;13.70;99.90;;;;;;5116884;27;20494;-76
2022/10/30 01:10:10;;;;;;;88.43;35.83;;;13.70;99.90;;;;;;5116729;27;20478;-76
2022/10/30 01:12:36;;;;;;;97.63;39.27;;;13.60;99.90;;;;;;5135321;27;20239;-72
2022/10/30 01:15:02;;;;;;;104.73;36.97;;;13.60;99.90;;;;;;5135132;27;20430;-75
2022/10/30 01:17:51;;;;;;;96.60;37.60;;;13.60;99.90;;;;;;5135249;27;20934;-74
2022/10/30 01:20:28;;;;;;;95.57;35.73;;;13.60;99.90;;;;;;5135078;27;20461;-75
2022/10/30 01:23:24;;;;;;;96.57;39.00;;;13.60;99.90;;;;;;5116630;27;20430;-72
2022/10/30 01:26:13;;;;;;;91.67;37.80;;;13.60;99.90;;;;;;5135185;27;20471;-72
2022/10/30 01:28:55;;;;;;;81.60;32.97;;;13.50;99.90;;;;;;5116623;27;20476;-72
2022/10/30 01:31:39;;;;;;;90.60;34.20;;;13.50;99.90;;;;;;5135214;27;20427;-72
2022/10/30 01:34:12;;;;;;;85.57;36.40;;;13.50;99.90;;;;;;5116495;27;20925;-72
2022/10/30 01:36:53;;;;;;;80.60;35.23;;;13.40;99.90;;;;;;5116793;27;20501;-72
2022/10/30 01:39:25;;;;;;;82.40;35.07;;;13.40;99.90;;;;;;5134866;27;20403;-72
2022/10/30 01:41:52;;;;;;;86.50;33.57;;;13.40;99.90;;;;;;5135367;27;20930;-72
2022/10/30 01:44:22;;;;;;;86.03;36.00;;;13.40;99.90;;;;;;5116227;27;20433;-75
2022/10/30 01:47:12;;;;;;;81.60;33.63;;;13.40;99.90;;;;;;5134735;27;20833;-72
2022/10/30 01:49:56;;;;;;;75.80;32.33;;;13.40;99.90;;;;;;5134276;27;20435;-75
2022/10/30 01:52:28;;;;;;;71.07;32.50;;;13.30;99.90;;;;;;5116406;28;20443;-75
2022/10/30 01:55:03;;;;;;;78.47;33.77;;;13.30;99.90;;;;;;5116307;28;20446;-75
2022/10/30 01:57:52;;;;;;;64.60;31.47;;;13.30;99.90;;;;;;5134740;28;20517;-75
2022/10/30 02:00:19;;;;;;;69.43;31.40;;;13.20;99.90;;;;;;5134603;27;20438;-75
2022/10/30 02:02:46;;;;;;;73.67;32.90;;;13.20;99.90;;;;;;5116270;28;20974;-72
2022/10/30 02:05:39;;;;;;;77.80;31.80;;;13.10;99.90;;;;;;5115959;28;20457;-71
2022/10/30 02:08:05;;;;;;;66.87;29.60;;;13.10;99.90;;;;;;5102646;28;20477;-75
2022/10/30 02:10:34;;;;;;;83.30;31.57;;;13.10;99.90;;;;;;5134474;27;20510;-72
2022/10/30 02:13:00;;;;;;;75.20;34.23;;;13.10;99.90;;;;;;5116118;28;20411;-75
2022/10/30 02:15:26;;;;;;;68.60;30.27;;;13.10;99.90;;;;;;5116081;28;20438;-72
2022/10/30 02:17:53;;;;;;;87.00;29.77;;;13.10;99.90;;;;;;5134435;28;20411;-72
2022/10/30 02:20:19;;;;;;;76.83;32.90;;;13.10;99.90;;;;;;5134387;27;20664;-72
2022/10/30 02:22:46;;;;;;;69.90;33.17;;;13.10;99.90;;;;;;5134565;28;20447;-75
2022/10/30 02:25:12;;;;;;;86.07;33.80;;;13.10;99.90;;;;;;5115548;28;21240;-75
2022/10/30 02:27:38;;;;;;;78.73;32.13;;;13.00;99.90;;;;;;5115880;28;20474;-72
2022/10/30 02:30:05;;;;;;;79.70;33.90;;;13.00;99.90;;;;;;5115730;28;20495;-75
2022/10/30 02:32:31;;;;;;;78.90;31.10;;;13.00;99.90;;;;;;5115897;28;20224;-74
2022/10/30 02:34:57;;;;;;;77.83;33.60;;;13.00;99.90;;;;;;5115883;28;20419;-72
2022/10/30 02:37:23;;;;;;;77.20;32.63;;;13.00;99.90;;;;;;5116058;28;20423;-72
2022/10/30 02:39:49;;;;;;;88.40;33.03;;;13.00;99.90;;;;;;5134145;27;20419;-72
2022/10/30 02:42:15;;;;;;;74.70;31.90;;;13.00;99.90;;;;;;5134705;28;20434;-76
2022/10/30 02:44:41;;;;;;;71.73;31.57;;;13.10;99.90;;;;;;5134207;27;20423;-72
2022/10/30 02:47:06;;;;;;;76.43;30.57;;;13.00;99.90;;;;;;5115955;28;20463;-75
2022/10/30 02:49:32;;;;;;;64.93;28.87;;;13.00;99.90;;;;;;5134131;27;20195;-75
2022/10/30 02:51:57;;;;;;;82.30;31.23;;;13.00;99.90;;;;;;5134536;28;20171;-72
2022/10/30 02:54:23;;;;;;;79.50;31.57;;;13.00;99.90;;;;;;5115643;27;20679;-75
2022/10/30 02:56:49;;;;;;;80.20;32.47;;;13.00;99.90;;;;;;5134095;28;20175;-75
2022/10/30 02:59:15;;;;;;;69.77;30.40;;;13.00;99.90;;;;;;5115567;27;20184;-75
2022/10/30 03:01:40;;;;;;;89.90;33.40;;;13.00;99.90;;;;;;5116572;27;20407;-72
2022/10/30 03:04:06;;;;;;;74.43;32.07;;;13.00;99.90;;;;;;5119193;27;20224;-75
2022/10/30 03:06:31;;;;;;;66.77;30.30;;;13.00;99.90;;;;;;5137945;27;20195;-72
2022/10/30 03:08:57;;;;;;;74.83;33.30;;;13.00;99.90;;;;;;5119404;27;20179;-73
2022/10/30 03:11:23;;;;;;;65.70;32.57;;;13.00;99.90;;;;;;5137821;27;20194;-75
2022/10/30 03:13:49;;;;;;;73.67;29.93;;;13.00;99.90;;;;;;5119245;27;20506;-75
2022/10/30 03:16:22;;;;;;;75.13;32.47;;;13.00;99.90;;;;;;5137786;27;20203;-75
2022/10/30 03:18:49;;;;;;;69.67;30.17;;;12.90;99.90;;;;;;5119016;27;20178;-71
2022/10/30 03:21:18;;;;;;;60.37;30.60;;;12.90;99.90;;;;;;5137636;27;20836;-72
2022/10/30 03:23:44;;;;;;;68.33;31.60;;;12.90;99.90;;;;;;5137661;27;20410;-75
2022/10/30 03:26:10;;;;;;;70.73;32.40;;;12.90;99.90;;;;;;5137460;27;20502;-72
2022/10/30 03:28:36;;;;;;;89.53;32.97;;;13.00;99.90;;;;;;5137308;27;20496;-74
2022/10/30 03:31:04;;;;;;;73.90;32.20;;;13.00;99.90;;;;;;5118685;27;20435;-72
2022/10/30 03:33:30;;;;;;;66.30;30.67;;;13.00;99.90;;;;;;5137234;27;20175;-75
2022/10/30 03:35:56;;;;;;;77.77;33.27;;;13.00;99.90;;;;;;5118778;27;20466;-72
2022/10/30 03:38:22;;;;;;;72.30;31.63;;;13.00;99.90;;;;;;5137132;27;20491;-75
2022/10/30 03:40:48;;;;;;;74.97;30.40;;;13.00;99.90;;;;;;5137381;27;20969;-72
2022/10/30 03:43:14;;;;;;;68.67;32.03;;;13.00;99.90;;;;;;5118778;27;20167;-72
2022/10/30 03:45:44;;;;;;;66.90;31.00;;;13.00;99.90;;;;;;5118571;27;20197;-72
2022/10/30 03:48:10;;;;;;;58.67;29.83;;;13.00;99.90;;;;;;5118554;27;20238;-75
2022/10/30 03:50:35;;;;;;;73.87;30.50;;;12.90;99.90;;;;;;5118508;27;20471;-75
2022/10/30 03:53:02;;;;;;;71.60;30.10;;;12.90;99.90;;;;;;5137067;27;20176;-72
2022/10/30 03:55:28;;;;;;;79.87;30.93;;;12.90;99.90;;;;;;5136909;27;20518;-75
2022/10/30 03:57:53;;;;;;;73.17;32.50;;;13.00;99.90;;;;;;5118365;27;20403;-72
2022/10/30 04:00:19;;;;;;;72.17;33.80;;;13.00;99.90;;;;;;5118229;27;20209;-72
2022/10/30 04:02:50;;;;;;;78.23;32.43;;;13.00;99.90;;;;;;5118160;27;20224;-72
2022/10/30 04:05:18;;;;;;;78.73;31.07;;;13.00;99.90;;;;;;5136447;27;20194;-72
2022/10/30 04:07:43;;;;;;;76.70;32.50;;;12.90;99.90;;;;;;5136534;27;20465;-72
2022/10/30 04:10:10;;;;;;;63.53;31.00;;;12.90;99.90;;;;;;5117885;27;20435;-75
2022/10/30 04:12:36;;;;;;;72.43;30.63;;;12.90;99.90;;;;;;5136405;27;20196;-71
2022/10/30 04:15:02;;;;;;;70.90;31.20;;;12.90;99.90;;;;;;5117318;27;21025;-75
2022/10/30 04:17:28;;;;;;;70.90;33.13;;;12.90;99.90;;;;;;5136408;27;20792;-75
2022/10/30 04:19:54;;;;;;;68.43;29.97;;;12.90;99.90;;;;;;5117859;27;20446;-72
2022/10/30 04:22:19;;;;;;;71.47;31.77;;;12.90;99.90;;;;;;5117849;27;20183;-72
2022/10/30 04:24:47;;;;;;;90.87;33.10;;;12.90;99.90;;;;;;5117759;27;20199;-75
2022/10/30 04:27:13;;;;;;;81.90;31.10;;;13.00;99.90;;;;;;5136428;27;20227;-72
2022/10/30 04:29:40;;;;;;;78.50;33.60;;;13.00;99.90;;;;;;5117638;27;20434;-75
2022/10/30 04:32:07;;;;;;;85.43;33.20;;;13.00;99.90;;;;;;5117897;27;20420;-75
2022/10/30 04:34:32;;;;;;;77.83;31.93;;;13.10;99.90;;;;;;5135895;27;20770;-75
2022/10/30 04:36:58;;;;;;;63.43;31.40;;;13.10;99.90;;;;;;5136469;27;20411;-72
2022/10/30 04:39:24;;;;;;;62.37;32.70;;;13.00;99.90;;;;;;5135825;27;20664;-75
2022/10/30 04:41:49;;;;;;;67.80;30.00;;;13.00;99.90;;;;;;5136282;27;20269;-71
2022/10/30 04:44:15;;;;;;;62.93;31.30;;;13.00;99.90;;;;;;5117329;27;20655;-72
2022/10/30 04:46:41;;;;;;;65.73;31.70;;;13.00;99.90;;;;;;5136067;27;20277;-72
2022/10/30 04:49:07;;;;;;;64.40;30.33;;;13.00;99.90;;;;;;5135710;27;20182;-71
2022/10/30 04:51:32;;;;;;;57.67;28.63;;;13.00;99.90;;;;;;5117461;27;20181;-75
2022/10/30 04:53:58;;;;;;;66.90;32.53;;;13.00;99.90;;;;;;5117232;27;20545;-74
2022/10/30 04:56:23;;;;;;;74.67;33.23;;;13.00;99.90;;;;;;5135777;27;20720;-75
2022/10/30 04:58:49;;;;;;;72.40;30.47;;;13.00;99.90;;;;;;5135491;27;20182;-71
2022/10/30 05:01:15;;;;;;;73.07;31.83;;;13.00;99.90;;;;;;5135669;27;20728;-72
2022/10/30 05:03:41;;;;;;;62.67;30.93;;;13.00;99.90;;;;;;5117006;27;20414;-71
2022/10/30 05:06:18;;;;;;;64.50;30.07;;;13.00;99.90;;;;;;5135568;27;20234;-71
2022/10/30 05:08:44;;;;;;;68.97;31.80;;;13.10;99.90;;;;;;5117030;27;20186;-75
2022/10/30 05:11:09;;;;;;;76.17;33.73;;;13.10;99.90;;;;;;5116994;27;20454;-72
2022/10/30 05:13:35;;;;;;;74.57;36.70;;;13.10;99.90;;;;;;5117072;27;20189;-73
2022/10/30 05:16:00;;;;;;;83.27;33.00;;;13.20;99.90;;;;;;5135555;27;20191;-75
2022/10/30 05:18:26;;;;;;;75.43;34.20;;;13.20;99.90;;;;;;5135304;27;20216;-73
2022/10/30 05:20:52;;;;;;;73.40;33.23;;;13.30;99.90;;;;;;5135368;27;20199;-75
2022/10/30 05:23:17;;;;;;;74.70;29.83;;;13.30;99.90;;;;;;5116822;27;20316;-74
2022/10/30 05:25:43;;;;;;;67.57;31.40;;;13.30;99.90;;;;;;5134985;27;20246;-75
2022/10/30 05:28:09;;;;;;;73.57;33.03;;;13.30;99.90;;;;;;5134881;27;20260;-72
2022/10/30 05:30:35;;;;;;;76.13;31.73;;;13.30;99.90;;;;;;5116578;27;20252;-75
2022/10/30 05:33:02;;;;;;;74.33;33.23;;;13.30;99.90;;;;;;5134927;27;20400;-75
2022/10/30 05:35:31;;;;;;;66.37;31.47;;;13.40;99.90;;;;;;5134836;27;20195;-72
2022/10/30 05:37:57;;;;;;;74.90;32.67;;;13.40;99.90;;;;;;5116411;27;20411;-71
2022/10/30 05:40:23;;;;;;;65.23;31.93;;;13.40;99.90;;;;;;5134964;27;21002;-71
2022/10/30 05:42:48;;;;;;;72.70;29.97;;;13.40;99.90;;;;;;5134924;27;20506;-71
2022/10/30 05:45:15;;;;;;;68.30;29.90;;;13.40;99.90;;;;;;5134622;27;20199;-71
2022/10/30 05:47:41;;;;;;;74.13;33.50;;;13.40;99.90;;;;;;5134746;27;20211;-72
2022/10/30 05:50:08;;;;;;;64.83;32.00;;;13.50;99.90;;;;;;5116171;27;20492;-72
2022/10/30 05:52:33;;;;;;;67.73;31.27;;;13.50;99.90;;;;;;5134622;27;20764;-75
2022/10/30 05:54:59;;;;;;;71.63;32.50;;;13.40;99.90;;;;;;5134552;27;20413;-72
2022/10/30 05:57:29;;;;;;;71.97;32.37;;;13.40;99.90;;;;;;5116093;28;20666;-75
2022/10/30 05:59:55;;;;;;;60.07;29.80;;;13.40;99.90;;;;;;5134637;27;20438;-75
2022/10/30 06:02:21;;;;;;;66.60;30.10;;;13.40;99.90;;;;;;5135406;28;20403;-72
2022/10/30 06:04:46;;;;;;;59.60;33.83;;;13.50;99.90;;;;;;5134589;27;20428;-72
2022/10/30 06:07:12;;;;;;;69.17;32.77;;;13.50;99.90;;;;;;5116364;28;20459;-72
2022/10/30 06:09:38;;;;;;;71.00;32.17;;;13.50;99.90;;;;;;5116064;28;20262;-75
2022/10/30 06:12:03;;;;;;;72.67;32.33;;;13.50;99.90;;;;;;5134960;28;20526;-72
2022/10/30 06:14:29;;;;;;;76.60;32.90;;;13.50;99.90;;;;;;5116058;28;20234;-71
2022/10/30 06:16:55;;;;;;;66.57;31.37;;;13.50;99.90;;;;;;5116282;28;20174;-75
2022/10/30 06:19:20;;;;;;;72.23;32.30;;;13.50;99.90;;;;;;5134417;27;20565;-72
2022/10/30 06:21:46;;;;;;;70.47;30.40;;;13.50;99.90;;;;;;5116303;28;20270;-75
2022/10/30 06:24:13;;;;;;;60.67;29.37;;;13.50;99.90;;;;;;5134368;27;20183;-72
2022/10/30 06:26:38;;;;;;;81.67;32.80;;;13.50;99.90;;;;;;5115932;28;20604;-75
2022/10/30 06:29:04;;;;;;;72.87;32.77;;;13.50;99.90;;;;;;5134252;27;20399;-75
2022/10/30 06:31:30;;;;;;;76.47;32.70;;;13.50;99.90;;;;;;5134278;28;20228;-72
2022/10/30 06:33:55;;;;;;;72.57;32.63;;;13.50;99.90;;;;;;5115926;28;20179;-73
2022/10/30 06:36:21;;;;;;;79.23;32.93;;;13.50;99.90;;;;;;5116594;27;20195;-72
2022/10/30 06:38:47;;;;;;;73.77;30.87;;;13.50;99.90;;;;;;5138341;27;20178;-75
2022/10/30 06:41:13;;;;;;;66.00;30.37;;;13.50;99.90;;;;;;5138154;27;20569;-72
2022/10/30 06:43:38;;;;;;;73.57;31.40;;;13.50;99.90;;;;;;5119873;27;20226;-75
2022/10/30 06:46:04;;;;;;;76.17;32.80;;;13.50;99.90;;;;;;5119734;27;20478;-72
2022/10/30 06:48:30;;;;;;;65.47;32.30;;;13.50;99.90;;;;;;5119604;27;20215;-72
2022/10/30 06:50:57;;;;;;;69.27;30.83;;;13.60;99.90;;;;;;5138227;27;20458;-72
2022/10/30 06:53:24;;;;;;;77.90;31.30;;;13.60;99.90;;;;;;5119562;27;20179;-72
2022/10/30 06:55:57;;;;;;;70.93;31.33;;;13.60;99.90;;;;;;5138072;27;20751;-75
2022/10/30 06:58:23;;;;;;;71.17;31.00;;;13.70;99.90;;;;;;5119598;27;20461;-75
2022/10/30 07:00:49;;;;;;;70.73;31.53;;;13.70;99.90;;;;;;5138139;27;20950;-72
2022/10/30 07:03:15;;;;;;;70.73;33.30;;;13.70;99.90;;;;;;5137836;27;20891;-71
2022/10/30 07:05:41;;;;;;;70.27;30.00;;;13.80;99.90;;;;;;5137929;27;20419;-72
2022/10/30 07:08:06;;;;;;;65.87;30.27;;;13.80;99.90;;;;;;5119280;27;20275;-74
2022/10/30 07:10:32;;;;;;;75.43;32.77;;;13.80;99.90;;;;;;5119218;27;20202;-76
2022/10/30 07:12:58;;;;;;;68.10;32.40;;;13.80;99.90;;;;;;5137485;27;20171;-74
2022/10/30 07:15:24;;;;;;;69.77;32.67;;;13.80;99.90;;;;;;5118997;27;20197;-75
2022/10/30 07:18:01;;;;;;;65.70;30.80;;;13.80;99.90;;;;;;5117814;27;20178;-75
2022/10/30 07:20:31;;;;;;;66.53;30.20;;;13.90;99.90;;;;;;5118256;27;20443;-76
2022/10/30 07:22:57;;;;;;;66.00;30.60;;;13.80;99.90;;;;;;5137420;27;20760;-72
2022/10/30 07:25:22;;;;;;;68.57;33.70;;;13.90;99.90;;;;;;5118667;27;20486;-72
2022/10/30 07:27:50;;;;;;;74.57;33.80;;;13.80;99.90;;;;;;5137325;27;20289;-72
2022/10/30 07:30:22;;;;;;;67.43;31.83;;;13.90;99.90;;;;;;5118748;27;20576;-75
2022/10/30 07:33:02;;;;;;;66.17;31.27;;;13.90;99.90;;;;;;5118922;27;20419;-71
2022/10/30 07:35:28;;;;;;;72.57;31.90;;;13.90;99.90;;;;;;5137119;27;20582;-73
2022/10/30 07:37:54;;;;;;;66.77;32.37;;;13.90;99.90;;;;;;5118748;27;20415;-72
2022/10/30 07:40:20;;;;;;;66.73;30.33;;;13.90;99.90;;;;;;5118577;27;20423;-72
2022/10/30 07:42:46;;;;;;;70.87;31.93;;;14.00;99.90;;;;;;5118721;27;20472;-72
2022/10/30 07:45:12;;;;;;;59.83;27.57;;;14.00;99.90;;;;;;5136987;27;20197;-72
2022/10/30 07:47:40;;;;;;;61.73;30.13;;;14.00;99.90;;;;;;5117774;28;20460;-72
2022/10/30 07:50:06;;;;;;;67.27;31.70;;;14.00;99.90;;;;;;5136235;27;21003;-72
2022/10/30 07:52:31;;;;;;;69.07;30.57;;;14.00;99.90;;;;;;5118502;27;20421;-75
2022/10/30 07:54:57;;;;;;;64.07;31.03;;;14.00;99.90;;;;;;5136829;27;20507;-75
2022/10/30 07:57:22;;;;;;;68.27;31.00;;;14.00;99.90;;;;;;5137309;27;20175;-71
2022/10/30 07:59:48;;;;;;;63.23;31.57;;;14.00;99.90;;;;;;5136679;27;20206;-75
2022/10/30 08:02:14;;;;;;;81.47;33.13;;;13.90;99.90;;;;;;5137162;27;20296;-75
2022/10/30 08:04:39;;;;;;;78.53;32.30;;;13.90;99.90;;;;;;5136790;27;20190;-73
2022/10/30 08:07:05;;;;;;;71.67;30.93;;;13.90;99.90;;;;;;5118300;27;20258;-75
2022/10/30 08:09:30;;;;;;;81.13;33.97;;;13.90;99.90;;;;;;5136491;27;20198;-72
2022/10/30 08:11:56;;;;;;;74.83;31.60;;;13.90;99.90;;;;;;5118275;27;20182;-75
2022/10/30 08:14:22;;;;;;;83.90;33.97;;;13.90;99.90;;;;;;5136425;27;20205;-75
2022/10/30 08:16:47;;;;;;;79.23;36.00;;;13.90;99.90;;;;;;5136771;27;20522;-72
2022/10/30 08:19:13;;;;;;;70.43;33.90;;;13.90;99.90;;;;;;5117787;27;20190;-75
2022/10/30 08:21:39;;;;;;;71.03;32.70;;;14.00;99.90;;;;;;5136647;27;20203;-72
2022/10/30 08:24:05;;;;;;;79.33;36.80;;;13.90;99.90;;;;;;5117812;27;20224;-71
2022/10/30 08:26:31;;;;;;;78.23;35.97;;;14.00;99.90;;;;;;5114176;28;20231;-75
2022/10/30 08:28:56;;;;;;;82.27;37.13;;;13.90;99.90;;;;;;5115915;28;20495;-74
2022/10/30 08:31:22;;;;;;;77.30;34.77;;;14.00;99.90;;;;;;5115730;28;20491;-72
2022/10/30 08:33:48;;;;;;;81.60;35.77;;;14.00;99.90;;;;;;5114378;28;20184;-74
2022/10/30 08:36:13;;;;;;;74.23;34.13;;;14.00;99.90;;;;;;5115612;28;20443;-75
2022/10/30 08:38:39;;;;;;;71.87;33.90;;;14.00;99.90;;;;;;5115508;28;20175;-73
2022/10/30 08:41:04;;;;;;;82.73;38.60;;;14.10;99.90;;;;;;5115568;28;20196;-75
2022/10/30 08:43:30;;;;;;;88.30;37.63;;;14.10;99.90;;;;;;5115286;28;20180;-72
2022/10/30 08:46:00;;;;;;;84.70;35.60;;;14.10;99.90;;;;;;5115452;28;20229;-72
2022/10/30 08:48:25;;;;;;;84.90;38.33;;;14.10;99.90;;;;;;5113811;28;20211;-75
2022/10/30 08:50:51;;;;;;;90.60;38.97;;;14.10;99.90;;;;;;5113914;28;20439;-72
2022/10/30 08:53:17;;;;;;;84.63;36.40;;;14.10;99.90;;;;;;5113851;28;20176;-75
2022/10/30 08:55:42;;;;;;;91.23;38.93;;;14.10;99.90;;;;;;5115163;28;20455;-71
2022/10/30 08:58:08;;;;;;;90.03;41.20;;;14.20;99.90;;;;;;5113752;28;20198;-73
2022/10/30 09:00:34;;;;;;;83.90;37.70;;;14.20;99.90;;;;;;5114825;28;20194;-76
2022/10/30 09:03:00;;;;;;;94.47;39.97;;;14.20;99.90;;;;;;5113630;28;20979;-75
2022/10/30 09:05:25;;;;;;;88.30;41.20;;;14.10;99.90;;;;;;5113669;28;20436;-75
2022/10/30 09:07:59;;;;;;;79.57;36.87;;;14.20;99.90;;;;;;5114816;28;20241;-73
2022/10/30 09:10:25;;;;;;;88.90;37.20;;;14.20;99.90;;;;;;5113617;28;20694;-75
2022/10/30 09:12:56;;;;;;;84.77;38.50;;;14.10;99.90;;;;;;5114759;28;20498;-75
2022/10/30 09:15:22;;;;;;;93.13;41.07;;;14.10;99.90;;;;;;5114789;28;20854;-75
2022/10/30 09:17:47;;;;;;;90.07;43.73;;;14.20;99.90;;;;;;5114650;28;20432;-71
2022/10/30 09:20:13;;;;;;;87.53;41.50;;;14.20;99.90;;;;;;5114595;28;20422;-73
2022/10/30 09:22:42;;;;;;;92.10;38.97;;;14.20;99.90;;;;;;5114643;28;20182;-72
2022/10/30 09:25:08;;;;;;;88.00;40.17;;;14.30;99.90;;;;;;5115027;27;20588;-71
2022/10/30 09:27:38;;;;;;;82.47;39.37;;;14.30;99.90;;;;;;5116599;27;20503;-76
2022/10/30 09:30:04;;;;;;;97.23;41.93;;;14.30;99.90;;;;;;5116474;27;20423;-75
2022/10/30 09:32:30;;;;;;;87.47;40.23;;;14.30;99.90;;;;;;5134965;27;20423;-72
2022/10/30 09:34:56;;;;;;;90.00;41.93;;;14.30;99.90;;;;;;5134888;27;20426;-75
2022/10/30 09:37:26;;;;;;;85.33;39.70;;;14.30;99.90;;;;;;5135399;27;20515;-75
2022/10/30 09:39:51;;;;;;;103.27;45.53;;;14.30;99.90;;;;;;5134853;27;20202;-75
2022/10/30 09:42:46;;;;;;;104.43;48.37;;;14.40;99.90;;;;;;5135316;27;20403;-72
2022/10/30 09:45:26;;;;;;;117.57;55.20;;;14.40;99.90;;;;;;5134693;27;20324;-75
2022/10/30 09:47:55;;;;;;;108.83;54.53;;;14.50;99.90;;;;;;5134805;27;20466;-76
2022/10/30 09:50:25;;;;;;;87.10;44.27;;;14.50;99.90;;;;;;5134602;27;20495;-75
2022/10/30 09:53:21;;;;;;;78.43;42.00;;;14.50;99.90;;;;;;5134743;27;20411;-76
2022/10/30 09:56:14;;;;;;;95.67;44.63;;;14.60;99.90;;;;;;5116335;28;20521;-75
2022/10/30 09:58:52;;;;;;;83.30;43.80;;;14.60;99.90;;;;;;5134832;27;20460;-75
2022/10/30 10:01:26;;;;;;;75.53;40.93;;;14.60;99.90;;;;;;5134873;27;20453;-76
2022/10/30 10:04:05;;;;;;;82.20;43.13;;;14.70;99.90;;;;;;5134715;28;20901;-72
2022/10/30 10:06:35;;;;;;;77.73;40.70;;;14.70;99.90;;;;;;5134884;28;20474;-76
2022/10/30 10:09:05;;;;;;;81.03;39.53;;;14.70;99.90;;;;;;5116160;28;20831;-72
2022/10/30 10:11:42;;;;;;;86.97;41.33;;;14.70;99.90;;;;;;5117209;27;20416;-72
2022/10/30 10:14:16;;;;;;;81.23;40.70;;;14.70;99.90;;;;;;5138822;27;20428;-75
2022/10/30 10:16:47;;;;;;;74.47;41.50;;;14.70;99.90;;;;;;5120608;27;20480;-72
2022/10/30 10:19:31;;;;;;;78.40;42.83;;;14.70;99.90;;;;;;5120224;27;20430;-72
2022/10/30 10:21:59;;;;;;;71.90;36.07;;;14.70;99.90;;;;;;5120399;27;20422;-75
2022/10/30 10:24:38;;;;;;;79.40;36.27;;;14.70;99.90;;;;;;5120129;27;20480;-75
2022/10/30 10:27:38;;;;;;;73.33;38.93;;;14.70;99.90;;;;;;5139109;27;20977;-72
2022/10/30 10:30:23;;;;;;;70.10;38.17;;;14.80;99.90;;;;;;5119867;27;20487;-72
2022/10/30 10:33:08;;;;;;;78.67;36.27;;;14.80;99.90;;;;;;5138495;27;20911;-71
2022/10/30 10:35:49;;;;;;;83.77;38.43;;;14.80;99.90;;;;;;5138381;27;20773;-75
2022/10/30 10:38:33;;;;;;;80.23;40.37;;;14.80;99.90;;;;;;5119976;27;21033;-71
2022/10/30 10:40:59;;;;;;;89.47;39.30;;;14.80;99.90;;;;;;5119925;27;20997;-75
2022/10/30 10:43:30;;;;;;;81.63;42.60;;;14.90;99.90;;;;;;5138278;27;20403;-72
2022/10/30 10:46:19;;;;;;;93.87;39.73;;;14.90;99.90;;;;;;5138079;27;20203;-76
2022/10/30 10:49:08;;;;;;;88.27;45.77;;;14.90;99.90;;;;;;5138090;27;20454;-72
2022/10/30 10:51:43;;;;;;;76.70;39.80;;;14.90;99.90;;;;;;5138507;27;20407;-75
2022/10/30 10:54:11;;;;;;;85.57;40.10;;;14.90;99.90;;;;;;5119552;27;20497;-75
2022/10/30 10:56:40;;;;;;;79.93;37.50;;;14.90;99.90;;;;;;5119529;27;20824;-72
2022/10/30 10:59:19;;;;;;;76.97;38.57;;;15.00;99.90;;;;;;5137845;27;20411;-75
2022/10/30 11:02:18;;;;;;;82.47;39.87;;;15.00;99.90;;;;;;5119739;27;20426;-72
2022/10/30 11:04:49;;;;;;;66.53;35.90;;;15.00;99.90;;;;;;5119307;27;20431;-72
2022/10/30 11:07:21;;;;;;;71.63;37.67;;;15.00;99.90;;;;;;5119632;27;20463;-76
2022/10/30 11:09:52;;;;;;;84.53;39.67;;;15.00;99.90;;;;;;5119273;27;20431;-72
2022/10/30 11:12:26;;;;;;;75.73;37.40;;;15.00;99.90;;;;;;5119167;27;20477;-76
2022/10/30 11:14:52;;;;;;;81.20;40.50;;;15.00;99.90;;;;;;5137772;27;20927;-75
2022/10/30 11:17:23;;;;;;;87.57;40.00;;;15.00;99.90;;;;;;5119386;27;20417;-76
2022/10/30 11:19:53;;;;;;;81.67;41.03;;;15.00;99.90;;;;;;5137500;27;20274;-73
2022/10/30 11:22:32;;;;;;;94.13;44.10;;;15.00;99.90;;;;;;5138026;27;20430;-76
2022/10/30 11:25:21;;;;;;;84.03;40.40;;;15.00;99.90;;;;;;5118662;27;20449;-75
2022/10/30 11:27:52;;;;;;;90.40;42.70;;;15.10;99.90;;;;;;5137465;27;20532;-75
2022/10/30 11:30:27;;;;;;;89.40;38.97;;;15.10;99.90;;;;;;5137258;27;20426;-72
2022/10/30 11:32:54;;;;;;;90.83;40.47;;;15.10;99.90;;;;;;5137232;27;20424;-75
2022/10/30 11:35:20;;;;;;;91.37;42.23;;;15.10;99.90;;;;;;5137092;27;20435;-72
2022/10/30 11:37:49;;;;;;;89.53;41.37;;;15.10;99.90;;;;;;5137244;27;20400;-72
2022/10/30 11:40:21;;;;;;;82.27;41.50;;;15.10;99.90;;;;;;5137059;27;20419;-72
2022/10/30 11:43:03;;;;;;;88.87;43.30;;;15.10;99.90;;;;;;5118759;27;20424;-76
2022/10/30 11:45:36;;;;;;;93.07;43.87;;;15.10;99.90;;;;;;5118721;27;20525;-75
2022/10/30 11:48:09;;;;;;;84.80;41.47;;;15.10;99.90;;;;;;5136998;27;20557;-76
2022/10/30 11:50:35;;;;;;;87.80;41.73;;;15.10;99.90;;;;;;5118394;27;20431;-72
2022/10/30 11:53:10;;;;;;;95.97;41.07;;;15.10;99.90;;;;;;5118535;27;20418;-72
2022/10/30 11:55:44;;;;;;;91.17;43.67;;;15.10;99.90;;;;;;5118433;27;20914;-75
2022/10/30 11:58:22;;;;;;;83.60;42.57;;;15.10;99.90;;;;;;5136855;27;20759;-75
2022/10/30 12:01:21;;;;;;;91.70;41.13;;;15.10;99.90;;;;;;5136925;27;20845;-76
2022/10/30 12:03:47;;;;;;;87.47;42.60;;;15.10;99.90;;;;;;5123145;27;20427;-75
2022/10/30 12:06:22;;;;;;;98.00;44.63;;;15.10;99.90;;;;;;5118000;27;20439;-76
2022/10/30 12:09:01;;;;;;;92.20;44.50;;;15.10;99.90;;;;;;5136525;27;20507;-73
2022/10/30 12:11:29;;;;;;;85.03;41.30;;;15.10;99.90;;;;;;5118136;27;20475;-72
2022/10/30 12:13:56;;;;;;;83.03;40.87;;;15.10;99.90;;;;;;5118171;27;20419;-72
2022/10/30 12:16:22;;;;;;;90.30;41.77;;;15.10;99.90;;;;;;5116528;27;20499;-72
2022/10/30 12:18:57;;;;;;;80.70;39.93;;;15.10;99.90;;;;;;5117349;27;20419;-75
2022/10/30 12:21:25;;;;;;;75.40;41.17;;;15.10;99.90;;;;;;5136538;27;20198;-74
2022/10/30 12:23:57;;;;;;;78.03;39.70;;;15.20;99.90;;;;;;5117972;27;20415;-76
2022/10/30 12:26:24;;;;;;;73.80;39.33;;;15.20;99.90;;;;;;5117699;27;20467;-75
2022/10/30 12:28:57;;;;;;;81.47;40.07;;;15.20;99.90;;;;;;5116548;27;20477;-75
2022/10/30 12:31:31;;;;;;;84.10;41.60;;;15.20;99.90;;;;;;5136438;27;20518;-75
2022/10/30 12:34:02;;;;;;;93.97;43.87;;;15.30;99.90;;;;;;5117253;28;20403;-72
2022/10/30 12:36:37;;;;;;;78.80;41.80;;;15.30;99.90;;;;;;5115440;27;20522;-76